Aérodrome :
LOGIN :

S'inscrire | Disclaimer

   EN    FR    IT 

 










Légende :    VFR   VFR Marginal   IFR   IFR Intensif   IFR Très Intensif
Visi : 
Plafond : 
>= 8 km
>= 3000ft
5 à 8 km
1000 à 3000 ft
1500m à 5 km
500 à 1000 ft
800 à 1500m
200 à 500 ft
< 800m
< 200 ft
Symboles :   Orages  Brouillard  Fortes neiges  Fortes précipitations  Vent > 20 kt
SIGMETs :   Divers  Orages  Givrage  Turbulence  Onde Orograph.  Cendres Volcan.






- Altitude de l'aérodrome : 527 ft
- Code IATA : DBV


LDDU - Dubrovnik

DERNIER METAR :
  • 270800Z 11007KT 9999 FEW040 22/15 Q1018 NOSIG

METARs EXPIRÉS :
  • 270730Z 11008KT 070V170 9999 FEW040 22/12 Q1018 NOSIG
  • 270700Z 30004KT 230V350 9999 FEW040 21/14 Q1019 NOSIG
  • 270630Z VRB03KT 9999 FEW040 19/13 Q1018 TEMPO -TSRA FEW040CB
  • 270600Z 09006KT 9999 FEW040 19/12 Q1018 TEMPO -TSRA FEW040CB
  • 270530Z 08004KT 040V120 9999 FEW035 19/12 Q1018 TEMPO -TSRA FEW040CB

TAF TAF LDDU
Valide du 27 à 06h jusqu'au 28 à 06h UTC


270525Z 2706/2806 VRB02KT 9999 FEW035 TX25/2712Z TN18/2805Z
PROB30
TEMPO 2706/2709 TSRA FEW035 FEW050CB
PROB30
TEMPO 2711/2715 27007KT



MET'MAP, la Météo Aéronautique d'un coup d'oeil ! - Copyright ORBIFLY Décembre 2007 - Disclaimer

ORBIFLY MET'MAP TEAM :

Programmation & Développement : Alexandra Zaïnal
Sur une idée originale de : Baudouin d'Aumeries
Assistance à la programmation : Marc-Olivier Méhu
Soutien technique & logistique : Manuel Goepfert

Contact : metmap@orbifly.com




SOURCES & CREDITS :

   NOAA